sensor_id;sensor_type;location;lat;lon;timestamp;temperature;humidity
22956;DHT22;40888;48.148;11.526;2023-04-03T00:00:32;3.80;99.90
22956;DHT22;40888;48.148;11.526;2023-04-03T00:02:58;3.70;99.90
22956;DHT22;40888;48.148;11.526;2023-04-03T00:05:23;3.80;99.90
22956;DHT22;40888;48.148;11.526;2023-04-03T00:07:49;3.80;99.90
22956;DHT22;40888;48.148;11.526;2023-04-03T00:10:16;3.80;99.90
22956;DHT22;40888;48.148;11.526;2023-04-03T00:12:41;3.80;99.90
22956;DHT22;40888;48.148;11.526;2023-04-03T00:15:08;3.80;99.90
22956;DHT22;40888;48.148;11.526;2023-04-03T00:17:34;3.80;99.90
22956;DHT22;40888;48.148;11.526;2023-04-03T00:19:59;3.80;99.90
22956;DHT22;40888;48.148;11.526;2023-04-03T00:22:25;3.90;99.90
22956;DHT22;40888;48.148;11.526;2023-04-03T00:24:54;3.90;99.90
22956;DHT22;40888;48.148;11.526;2023-04-03T00:27:20;4.00;99.90
22956;DHT22;40888;48.148;11.526;2023-04-03T00:29:46;4.00;99.90
22956;DHT22;40888;48.148;11.526;2023-04-03T00:32:11;3.90;99.90
22956;DHT22;40888;48.148;11.526;2023-04-03T00:34:37;4.00;99.90
22956;DHT22;40888;48.148;11.526;2023-04-03T00:37:03;3.80;99.90
22956;DHT22;40888;48.148;11.526;2023-04-03T00:39:28;3.90;99.90
22956;DHT22;40888;48.148;11.526;2023-04-03T00:41:54;3.90;99.90
22956;DHT22;40888;48.148;11.526;2023-04-03T00:47:09;4.10;99.90
22956;DHT22;40888;48.148;11.526;2023-04-03T00:49:37;4.00;99.90
22956;DHT22;40888;48.148;11.526;2023-04-03T00:52:05;4.10;99.90
22956;DHT22;40888;48.148;11.526;2023-04-03T00:54:36;4.10;99.90
22956;DHT22;40888;48.148;11.526;2023-04-03T00:57:03;4.00;99.90
22956;DHT22;40888;48.148;11.526;2023-04-03T00:59:38;4.00;99.90
22956;DHT22;40888;48.148;11.526;2023-04-03T01:02:05;4.00;99.90
22956;DHT22;40888;48.148;11.526;2023-04-03T01:04:42;4.00;99.90
22956;DHT22;40888;48.148;11.526;2023-04-03T01:07:17;3.90;99.90
22956;DHT22;40888;48.148;11.526;2023-04-03T01:09:45;3.90;99.90
22956;DHT22;40888;48.148;11.526;2023-04-03T01:12:16;3.90;99.90
22956;DHT22;40888;48.148;11.526;2023-04-03T01:14:43;3.90;99.90
22956;DHT22;40888;48.148;11.526;2023-04-03T01:25:35;3.60;99.90
22956;DHT22;40888;48.148;11.526;2023-04-03T01:28:02;3.60;99.90
22956;DHT22;40888;48.148;11.526;2023-04-03T01:30:32;3.70;99.90
22956;DHT22;40888;48.148;11.526;2023-04-03T01:32:59;3.80;99.90
22956;DHT22;40888;48.148;11.526;2023-04-03T01:35:25;3.80;99.90
22956;DHT22;40888;48.148;11.526;2023-04-03T01:37:50;3.80;99.90
22956;DHT22;40888;48.148;11.526;2023-04-03T01:40:16;3.90;99.90
22956;DHT22;40888;48.148;11.526;2023-04-03T01:42:42;3.90;99.90
22956;DHT22;40888;48.148;11.526;2023-04-03T01:45:08;3.80;99.90
22956;DHT22;40888;48.148;11.526;2023-04-03T01:47:34;3.80;99.90
22956;DHT22;40888;48.148;11.526;2023-04-03T01:50:00;3.80;99.90
22956;DHT22;40888;48.148;11.526;2023-04-03T01:52:25;3.80;99.90
22956;DHT22;40888;48.148;11.526;2023-04-03T01:54:51;3.70;99.90
22956;DHT22;40888;48.148;11.526;2023-04-03T01:57:17;3.80;99.90
22956;DHT22;40888;48.148;11.526;2023-04-03T01:59:43;3.90;99.90
22956;DHT22;40888;48.148;11.526;2023-04-03T02:02:09;3.90;99.90
22956;DHT22;40888;48.148;11.526;2023-04-03T02:04:35;4.00;99.90
22956;DHT22;40888;48.148;11.526;2023-04-03T02:07:00;3.80;99.90
22956;DHT22;40888;48.148;11.526;2023-04-03T02:09:26;3.80;99.90
22956;DHT22;40888;48.148;11.526;2023-04-03T02:11:52;3.80;99.90
22956;DHT22;40888;48.148;11.526;2023-04-03T02:14:18;3.90;99.90
22956;DHT22;40888;48.148;11.526;2023-04-03T02:16:44;3.90;99.90
22956;DHT22;40888;48.148;11.526;2023-04-03T02:19:10;3.90;99.90
22956;DHT22;40888;48.148;11.526;2023-04-03T02:21:36;3.90;99.90
22956;DHT22;40888;48.148;11.526;2023-04-03T02:24:01;3.90;99.90
22956;DHT22;40888;48.148;11.526;2023-04-03T02:26:27;3.70;99.90
22956;DHT22;40888;48.148;11.526;2023-04-03T02:28:53;3.70;99.90
22956;DHT22;40888;48.148;11.526;2023-04-03T02:31:19;3.80;99.90
22956;DHT22;40888;48.148;11.526;2023-04-03T02:33:44;3.90;99.90
22956;DHT22;40888;48.148;11.526;2023-04-03T02:36:10;3.90;99.90
22956;DHT22;40888;48.148;11.526;2023-04-03T02:38:36;3.90;99.90
22956;DHT22;40888;48.148;11.526;2023-04-03T02:41:04;3.90;99.90
22956;DHT22;40888;48.148;11.526;2023-04-03T02:43:30;3.90;99.90
22956;DHT22;40888;48.148;11.526;2023-04-03T02:45:56;3.90;99.90
22956;DHT22;40888;48.148;11.526;2023-04-03T02:48:23;3.80;99.90
22956;DHT22;40888;48.148;11.526;2023-04-03T02:50:49;3.80;99.90
22956;DHT22;40888;48.148;11.526;2023-04-03T02:53:15;3.90;99.90
22956;DHT22;40888;48.148;11.526;2023-04-03T02:55:41;3.90;99.90
22956;DHT22;40888;48.148;11.526;2023-04-03T02:58:07;3.90;99.90
22956;DHT22;40888;48.148;11.526;2023-04-03T03:00:33;3.90;99.90
22956;DHT22;40888;48.148;11.526;2023-04-03T03:03:03;3.90;99.90
22956;DHT22;40888;48.148;11.526;2023-04-03T03:05:28;4.00;99.90
22956;DHT22;40888;48.148;11.526;2023-04-03T03:07:54;3.80;99.90
22956;DHT22;40888;48.148;11.526;2023-04-03T03:10:20;3.70;99.90
22956;DHT22;40888;48.148;11.526;2023-04-03T03:12:46;3.60;99.90
22956;DHT22;40888;48.148;11.526;2023-04-03T03:15:12;3.60;99.90
22956;DHT22;40888;48.148;11.526;2023-04-03T03:17:38;3.70;99.90
22956;DHT22;40888;48.148;11.526;2023-04-03T03:20:05;3.80;99.90
22956;DHT22;40888;48.148;11.526;2023-04-03T03:22:31;3.70;99.90
22956;DHT22;40888;48.148;11.526;2023-04-03T03:24:57;3.50;99.90
22956;DHT22;40888;48.148;11.526;2023-04-03T03:27:23;3.60;99.90
22956;DHT22;40888;48.148;11.526;2023-04-03T03:29:49;3.60;99.90
22956;DHT22;40888;48.148;11.526;2023-04-03T03:32:15;3.60;99.90
22956;DHT22;40888;48.148;11.526;2023-04-03T03:34:41;3.70;99.90
22956;DHT22;40888;48.148;11.526;2023-04-03T03:37:06;3.70;99.90
22956;DHT22;40888;48.148;11.526;2023-04-03T03:39:32;3.70;99.90
22956;DHT22;40888;48.148;11.526;2023-04-03T03:41:58;3.60;99.90
22956;DHT22;40888;48.148;11.526;2023-04-03T03:44:23;3.70;99.90
22956;DHT22;40888;48.148;11.526;2023-04-03T03:46:49;3.80;99.90
22956;DHT22;40888;48.148;11.526;2023-04-03T03:49:15;3.80;99.90
22956;DHT22;40888;48.148;11.526;2023-04-03T03:51:40;3.80;99.90
22956;DHT22;40888;48.148;11.526;2023-04-03T03:54:07;3.80;99.90
22956;DHT22;40888;48.148;11.526;2023-04-03T03:56:33;3.90;99.90
22956;DHT22;40888;48.148;11.526;2023-04-03T03:58:59;3.60;99.90
22956;DHT22;40888;48.148;11.526;2023-04-03T04:01:24;3.60;99.90
22956;DHT22;40888;48.148;11.526;2023-04-03T04:03:50;3.70;99.90
22956;DHT22;40888;48.148;11.526;2023-04-03T04:06:16;3.70;99.90
22956;DHT22;40888;48.148;11.526;2023-04-03T04:08:42;3.70;99.90
22956;DHT22;40888;48.148;11.526;2023-04-03T04:11:09;3.80;99.90
22956;DHT22;40888;48.148;11.526;2023-04-03T04:13:35;3.80;99.90
22956;DHT22;40888;48.148;11.526;2023-04-03T04:16:00;3.80;99.90
22956;DHT22;40888;48.148;11.526;2023-04-03T04:18:26;3.70;99.90
22956;DHT22;40888;48.148;11.526;2023-04-03T04:20:52;3.60;99.90
22956;DHT22;40888;48.148;11.526;2023-04-03T04:23:18;3.50;99.90
22956;DHT22;40888;48.148;11.526;2023-04-03T04:25:48;3.60;99.90
22956;DHT22;40888;48.148;11.526;2023-04-03T04:28:14;3.70;99.90
22956;DHT22;40888;48.148;11.526;2023-04-03T04:30:40;3.60;99.90
22956;DHT22;40888;48.148;11.526;2023-04-03T04:33:06;3.60;99.90
22956;DHT22;40888;48.148;11.526;2023-04-03T04:35:32;3.70;99.90
22956;DHT22;40888;48.148;11.526;2023-04-03T04:37:58;3.80;99.90
22956;DHT22;40888;48.148;11.526;2023-04-03T04:40:24;3.80;99.90
22956;DHT22;40888;48.148;11.526;2023-04-03T04:42:50;3.90;99.90
22956;DHT22;40888;48.148;11.526;2023-04-03T04:45:16;3.70;99.90
22956;DHT22;40888;48.148;11.526;2023-04-03T04:47:41;3.80;99.90
22956;DHT22;40888;48.148;11.526;2023-04-03T04:50:07;3.80;99.90
22956;DHT22;40888;48.148;11.526;2023-04-03T04:52:33;3.90;99.90
22956;DHT22;40888;48.148;11.526;2023-04-03T04:54:59;3.90;99.90
22956;DHT22;40888;48.148;11.526;2023-04-03T04:57:25;3.80;99.90
22956;DHT22;40888;48.148;11.526;2023-04-03T04:59:51;3.80;99.90
22956;DHT22;40888;48.148;11.526;2023-04-03T05:02:17;3.80;99.90
22956;DHT22;40888;48.148;11.526;2023-04-03T05:04:43;3.70;99.90
22956;DHT22;40888;48.148;11.526;2023-04-03T05:07:09;3.80;99.90
22956;DHT22;40888;48.148;11.526;2023-04-03T05:09:35;3.80;99.90
22956;DHT22;40888;48.148;11.526;2023-04-03T05:12:01;3.90;99.90
22956;DHT22;40888;48.148;11.526;2023-04-03T05:14:28;3.90;99.90
22956;DHT22;40888;48.148;11.526;2023-04-03T05:16:54;3.70;99.90
22956;DHT22;40888;48.148;11.526;2023-04-03T05:19:20;3.80;99.90
22956;DHT22;40888;48.148;11.526;2023-04-03T05:21:47;3.80;99.90
22956;DHT22;40888;48.148;11.526;2023-04-03T05:24:13;3.80;99.90
22956;DHT22;40888;48.148;11.526;2023-04-03T05:26:39;3.80;99.90
22956;DHT22;40888;48.148;11.526;2023-04-03T05:29:05;3.90;99.90
22956;DHT22;40888;48.148;11.526;2023-04-03T05:31:30;3.90;99.90
22956;DHT22;40888;48.148;11.526;2023-04-03T05:33:56;3.60;99.90
22956;DHT22;40888;48.148;11.526;2023-04-03T05:36:22;3.60;99.90
22956;DHT22;40888;48.148;11.526;2023-04-03T05:38:48;3.70;99.90
22956;DHT22;40888;48.148;11.526;2023-04-03T05:41:15;3.70;99.90
22956;DHT22;40888;48.148;11.526;2023-04-03T05:43:41;3.80;99.90
22956;DHT22;40888;48.148;11.526;2023-04-03T05:46:10;3.80;99.90
22956;DHT22;40888;48.148;11.526;2023-04-03T05:48:36;3.80;99.90
22956;DHT22;40888;48.148;11.526;2023-04-03T05:51:03;3.80;99.90
22956;DHT22;40888;48.148;11.526;2023-04-03T05:53:31;3.80;99.90
22956;DHT22;40888;48.148;11.526;2023-04-03T05:55:58;3.80;99.90
22956;DHT22;40888;48.148;11.526;2023-04-03T05:58:24;3.80;99.90
22956;DHT22;40888;48.148;11.526;2023-04-03T06:00:50;3.80;99.90
22956;DHT22;40888;48.148;11.526;2023-04-03T06:03:15;3.80;99.90
22956;DHT22;40888;48.148;11.526;2023-04-03T06:05:42;3.80;99.90
22956;DHT22;40888;48.148;11.526;2023-04-03T06:08:08;3.80;99.90
22956;DHT22;40888;48.148;11.526;2023-04-03T06:10:35;3.80;99.90
22956;DHT22;40888;48.148;11.526;2023-04-03T06:13:01;3.80;99.90
22956;DHT22;40888;48.148;11.526;2023-04-03T06:15:27;3.70;99.90
22956;DHT22;40888;48.148;11.526;2023-04-03T06:17:53;3.70;99.90
22956;DHT22;40888;48.148;11.526;2023-04-03T06:20:19;3.70;99.90
22956;DHT22;40888;48.148;11.526;2023-04-03T06:22:45;3.80;99.90
22956;DHT22;40888;48.148;11.526;2023-04-03T06:25:11;3.90;99.90
22956;DHT22;40888;48.148;11.526;2023-04-03T06:27:37;3.90;99.90
22956;DHT22;40888;48.148;11.526;2023-04-03T06:30:05;4.00;99.90
22956;DHT22;40888;48.148;11.526;2023-04-03T06:32:30;4.00;99.90
22956;DHT22;40888;48.148;11.526;2023-04-03T06:34:56;4.10;99.90
22956;DHT22;40888;48.148;11.526;2023-04-03T06:37:23;3.90;99.90
22956;DHT22;40888;48.148;11.526;2023-04-03T06:39:52;3.90;99.90
22956;DHT22;40888;48.148;11.526;2023-04-03T06:42:18;3.90;99.90
22956;DHT22;40888;48.148;11.526;2023-04-03T06:44:43;4.00;99.90
22956;DHT22;40888;48.148;11.526;2023-04-03T06:47:12;4.10;99.90
22956;DHT22;40888;48.148;11.526;2023-04-03T06:49:38;4.00;99.90
22956;DHT22;40888;48.148;11.526;2023-04-03T06:52:04;4.20;99.90
22956;DHT22;40888;48.148;11.526;2023-04-03T06:54:31;4.20;99.90
22956;DHT22;40888;48.148;11.526;2023-04-03T06:56:57;4.10;99.90
22956;DHT22;40888;48.148;11.526;2023-04-03T06:59:23;4.30;99.90
22956;DHT22;40888;48.148;11.526;2023-04-03T07:01:49;4.40;99.90
22956;DHT22;40888;48.148;11.526;2023-04-03T07:04:15;4.40;99.90
22956;DHT22;40888;48.148;11.526;2023-04-03T07:06:41;4.40;99.90
22956;DHT22;40888;48.148;11.526;2023-04-03T07:09:09;4.40;99.90
22956;DHT22;40888;48.148;11.526;2023-04-03T07:11:35;4.40;99.90
22956;DHT22;40888;48.148;11.526;2023-04-03T07:14:02;4.40;99.90
22956;DHT22;40888;48.148;11.526;2023-04-03T07:16:28;4.30;99.90
22956;DHT22;40888;48.148;11.526;2023-04-03T07:18:56;4.30;99.90
22956;DHT22;40888;48.148;11.526;2023-04-03T07:21:23;4.30;99.90
22956;DHT22;40888;48.148;11.526;2023-04-03T07:23:48;4.40;99.90
22956;DHT22;40888;48.148;11.526;2023-04-03T07:26:14;4.50;99.90
22956;DHT22;40888;48.148;11.526;2023-04-03T07:28:40;4.60;99.90
22956;DHT22;40888;48.148;11.526;2023-04-03T07:31:09;4.60;99.90
22956;DHT22;40888;48.148;11.526;2023-04-03T07:33:37;4.60;99.90
22956;DHT22;40888;48.148;11.526;2023-04-03T07:36:04;4.60;99.90
22956;DHT22;40888;48.148;11.526;2023-04-03T07:38:32;4.60;99.90
22956;DHT22;40888;48.148;11.526;2023-04-03T07:40:58;4.50;99.90
22956;DHT22;40888;48.148;11.526;2023-04-03T07:43:24;4.50;99.90
22956;DHT22;40888;48.148;11.526;2023-04-03T07:45:53;4.60;99.90
22956;DHT22;40888;48.148;11.526;2023-04-03T07:48:24;4.60;99.90
22956;DHT22;40888;48.148;11.526;2023-04-03T07:50:51;4.60;99.90
22956;DHT22;40888;48.148;11.526;2023-04-03T07:53:18;4.60;99.90
22956;DHT22;40888;48.148;11.526;2023-04-03T07:55:46;4.70;99.90
22956;DHT22;40888;48.148;11.526;2023-04-03T07:58:17;4.50;99.90
22956;DHT22;40888;48.148;11.526;2023-04-03T08:00:44;4.50;99.90
22956;DHT22;40888;48.148;11.526;2023-04-03T08:03:11;4.50;99.90
22956;DHT22;40888;48.148;11.526;2023-04-03T08:05:39;4.60;99.90
22956;DHT22;40888;48.148;11.526;2023-04-03T08:08:06;4.50;99.90
22956;DHT22;40888;48.148;11.526;2023-04-03T08:10:33;4.60;99.90
22956;DHT22;40888;48.148;11.526;2023-04-03T08:12:59;4.30;99.90
22956;DHT22;40888;48.148;11.526;2023-04-03T08:15:25;4.20;99.90
22956;DHT22;40888;48.148;11.526;2023-04-03T08:17:51;4.30;99.90
22956;DHT22;40888;48.148;11.526;2023-04-03T08:20:17;4.40;99.90
22956;DHT22;40888;48.148;11.526;2023-04-03T08:22:43;4.50;99.90
22956;DHT22;40888;48.148;11.526;2023-04-03T08:25:09;4.40;99.90
22956;DHT22;40888;48.148;11.526;2023-04-03T08:27:34;4.50;99.90
22956;DHT22;40888;48.148;11.526;2023-04-03T08:30:00;4.50;99.90
22956;DHT22;40888;48.148;11.526;2023-04-03T08:32:26;4.50;99.90
22956;DHT22;40888;48.148;11.526;2023-04-03T08:34:52;4.50;99.90
22956;DHT22;40888;48.148;11.526;2023-04-03T08:37:18;4.50;99.90
22956;DHT22;40888;48.148;11.526;2023-04-03T08:39:45;4.40;99.90
22956;DHT22;40888;48.148;11.526;2023-04-03T08:45:45;4.70;99.90
22956;DHT22;40888;48.148;11.526;2023-04-03T08:48:29;4.60;99.90
22956;DHT22;40888;48.148;11.526;2023-04-03T08:51:03;4.50;99.90
22956;DHT22;40888;48.148;11.526;2023-04-03T08:53:34;4.50;99.90
22956;DHT22;40888;48.148;11.526;2023-04-03T08:56:08;4.80;99.90
22956;DHT22;40888;48.148;11.526;2023-04-03T08:58:45;4.90;99.90
22956;DHT22;40888;48.148;11.526;2023-04-03T09:01:39;4.90;99.90
22956;DHT22;40888;48.148;11.526;2023-04-03T09:04:14;4.70;99.90
22956;DHT22;40888;48.148;11.526;2023-04-03T09:06:43;4.80;99.90
22956;DHT22;40888;48.148;11.526;2023-04-03T09:15:21;4.80;99.90
22956;DHT22;40888;48.148;11.526;2023-04-03T09:18:01;4.80;99.90
22956;DHT22;40888;48.148;11.526;2023-04-03T09:20:49;4.70;99.90
22956;DHT22;40888;48.148;11.526;2023-04-03T09:25:54;5.10;99.90
22956;DHT22;40888;48.148;11.526;2023-04-03T09:28:22;5.20;99.90
22956;DHT22;40888;48.148;11.526;2023-04-03T09:30:47;5.30;99.90
22956;DHT22;40888;48.148;11.526;2023-04-03T09:33:14;5.20;99.90
22956;DHT22;40888;48.148;11.526;2023-04-03T09:35:41;4.90;99.90
22956;DHT22;40888;48.148;11.526;2023-04-03T09:40:39;5.10;99.90
22956;DHT22;40888;48.148;11.526;2023-04-03T09:45:45;5.30;99.90
22956;DHT22;40888;48.148;11.526;2023-04-03T09:50:56;5.30;99.90
22956;DHT22;40888;48.148;11.526;2023-04-03T09:53:39;5.30;99.90
22956;DHT22;40888;48.148;11.526;2023-04-03T09:58:45;5.40;99.90
22956;DHT22;40888;48.148;11.526;2023-04-03T10:01:30;5.40;99.90
22956;DHT22;40888;48.148;11.526;2023-04-03T10:12:10;5.30;99.90
22956;DHT22;40888;48.148;11.526;2023-04-03T10:17:21;5.20;99.90
22956;DHT22;40888;48.148;11.526;2023-04-03T10:19:53;5.10;99.90
22956;DHT22;40888;48.148;11.526;2023-04-03T10:25:22;5.10;99.90
22956;DHT22;40888;48.148;11.526;2023-04-03T10:27:59;5.10;99.90
22956;DHT22;40888;48.148;11.526;2023-04-03T10:30:34;5.00;99.90
22956;DHT22;40888;48.148;11.526;2023-04-03T10:33:11;5.00;99.90
22956;DHT22;40888;48.148;11.526;2023-04-03T10:38:31;5.10;99.90
22956;DHT22;40888;48.148;11.526;2023-04-03T10:41:12;5.20;99.90
22956;DHT22;40888;48.148;11.526;2023-04-03T10:46:21;5.10;99.90
22956;DHT22;40888;48.148;11.526;2023-04-03T10:51:42;5.00;99.90
22956;DHT22;40888;48.148;11.526;2023-04-03T10:56:49;4.90;99.90
22956;DHT22;40888;48.148;11.526;2023-04-03T10:59:55;5.00;99.90
22956;DHT22;40888;48.148;11.526;2023-04-03T11:02:33;4.90;99.90
22956;DHT22;40888;48.148;11.526;2023-04-03T11:05:17;4.90;99.90
22956;DHT22;40888;48.148;11.526;2023-04-03T11:07:49;4.80;99.90
22956;DHT22;40888;48.148;11.526;2023-04-03T11:10:37;4.80;99.90
22956;DHT22;40888;48.148;11.526;2023-04-03T11:13:21;4.70;99.90
22956;DHT22;40888;48.148;11.526;2023-04-03T11:15:49;4.60;99.90
22956;DHT22;40888;48.148;11.526;2023-04-03T11:18:31;4.60;99.90
22956;DHT22;40888;48.148;11.526;2023-04-03T11:24:05;4.70;99.90
22956;DHT22;40888;48.148;11.526;2023-04-03T11:26:40;4.70;99.90
22956;DHT22;40888;48.148;11.526;2023-04-03T11:29:18;4.60;99.90
22956;DHT22;40888;48.148;11.526;2023-04-03T11:32:02;4.70;99.90
22956;DHT22;40888;48.148;11.526;2023-04-03T11:34:43;4.70;99.90
22956;DHT22;40888;48.148;11.526;2023-04-03T11:37:28;4.80;99.90
22956;DHT22;40888;48.148;11.526;2023-04-03T11:40:00;4.90;99.90
22956;DHT22;40888;48.148;11.526;2023-04-03T11:42:39;4.80;99.90
22956;DHT22;40888;48.148;11.526;2023-04-03T11:47:51;5.00;99.90
22956;DHT22;40888;48.148;11.526;2023-04-03T11:50:43;5.20;99.90
22956;DHT22;40888;48.148;11.526;2023-04-03T11:55:44;5.10;99.90
22956;DHT22;40888;48.148;11.526;2023-04-03T11:58:19;5.40;99.90
22956;DHT22;40888;48.148;11.526;2023-04-03T12:05:49;5.60;99.90
22956;DHT22;40888;48.148;11.526;2023-04-03T12:16:21;5.70;93.20
22956;DHT22;40888;48.148;11.526;2023-04-03T12:26:42;6.10;84.40
22956;DHT22;40888;48.148;11.526;2023-04-03T12:29:15;6.20;83.40
22956;DHT22;40888;48.148;11.526;2023-04-03T12:45:49;6.40;75.10
22956;DHT22;40888;48.148;11.526;2023-04-03T12:48:21;6.30;76.00
22956;DHT22;40888;48.148;11.526;2023-04-03T12:50:49;6.60;74.80
22956;DHT22;40888;48.148;11.526;2023-04-03T12:53:27;6.30;72.60
22956;DHT22;40888;48.148;11.526;2023-04-03T12:56:28;6.40;74.90
22956;DHT22;40888;48.148;11.526;2023-04-03T12:58:56;6.60;73.00
22956;DHT22;40888;48.148;11.526;2023-04-03T13:01:38;6.80;70.20
22956;DHT22;40888;48.148;11.526;2023-04-03T13:04:04;7.00;68.70
22956;DHT22;40888;48.148;11.526;2023-04-03T13:06:41;6.90;65.40
22956;DHT22;40888;48.148;11.526;2023-04-03T13:09:20;6.80;66.80
22956;DHT22;40888;48.148;11.526;2023-04-03T13:11:50;7.00;66.60
22956;DHT22;40888;48.148;11.526;2023-04-03T13:14:19;7.10;67.50
22956;DHT22;40888;48.148;11.526;2023-04-03T13:16:57;7.40;68.20
22956;DHT22;40888;48.148;11.526;2023-04-03T13:19:27;7.20;70.40
22956;DHT22;40888;48.148;11.526;2023-04-03T13:22:05;7.80;67.90
22956;DHT22;40888;48.148;11.526;2023-04-03T13:24:35;8.30;62.70
22956;DHT22;40888;48.148;11.526;2023-04-03T13:27:03;8.40;64.30
22956;DHT22;40888;48.148;11.526;2023-04-03T13:29:32;8.20;62.40
22956;DHT22;40888;48.148;11.526;2023-04-03T13:32:01;8.00;62.80
22956;DHT22;40888;48.148;11.526;2023-04-03T13:34:40;7.70;60.30
22956;DHT22;40888;48.148;11.526;2023-04-03T13:37:06;7.60;60.20
22956;DHT22;40888;48.148;11.526;2023-04-03T13:39:35;7.50;60.40
22956;DHT22;40888;48.148;11.526;2023-04-03T13:42:21;7.50;60.50
22956;DHT22;40888;48.148;11.526;2023-04-03T13:44:48;7.40;62.40
22956;DHT22;40888;48.148;11.526;2023-04-03T13:47:20;7.20;62.20
22956;DHT22;40888;48.148;11.526;2023-04-03T13:50:12;6.60;65.00
22956;DHT22;40888;48.148;11.526;2023-04-03T13:52:46;6.50;68.00
22956;DHT22;40888;48.148;11.526;2023-04-03T13:57:57;6.90;66.50
22956;DHT22;40888;48.148;11.526;2023-04-03T14:03:22;6.80;67.00
22956;DHT22;40888;48.148;11.526;2023-04-03T14:05:48;6.90;66.00
22956;DHT22;40888;48.148;11.526;2023-04-03T14:08:14;6.80;65.50
22956;DHT22;40888;48.148;11.526;2023-04-03T14:10:40;6.50;67.70
22956;DHT22;40888;48.148;11.526;2023-04-03T14:13:06;6.50;65.20
22956;DHT22;40888;48.148;11.526;2023-04-03T14:15:32;6.50;66.50
22956;DHT22;40888;48.148;11.526;2023-04-03T14:17:58;6.60;65.40
22956;DHT22;40888;48.148;11.526;2023-04-03T14:20:26;6.70;64.90
22956;DHT22;40888;48.148;11.526;2023-04-03T14:22:52;6.60;65.10
22956;DHT22;40888;48.148;11.526;2023-04-03T14:25:20;6.50;65.60
22956;DHT22;40888;48.148;11.526;2023-04-03T14:27:48;6.70;66.10
22956;DHT22;40888;48.148;11.526;2023-04-03T14:30:20;6.80;65.30
22956;DHT22;40888;48.148;11.526;2023-04-03T14:32:48;7.20;67.00
22956;DHT22;40888;48.148;11.526;2023-04-03T14:35:15;7.50;61.40
22956;DHT22;40888;48.148;11.526;2023-04-03T14:37:41;7.50;60.40
22956;DHT22;40888;48.148;11.526;2023-04-03T14:40:11;7.50;60.00
22956;DHT22;40888;48.148;11.526;2023-04-03T14:42:38;7.80;59.90
22956;DHT22;40888;48.148;11.526;2023-04-03T14:45:07;7.90;59.60
22956;DHT22;40888;48.148;11.526;2023-04-03T14:47:39;8.40;58.40
22956;DHT22;40888;48.148;11.526;2023-04-03T14:50:08;8.70;55.80
22956;DHT22;40888;48.148;11.526;2023-04-03T14:52:36;8.60;57.00
22956;DHT22;40888;48.148;11.526;2023-04-03T14:55:04;8.70;53.90
22956;DHT22;40888;48.148;11.526;2023-04-03T14:57:31;8.50;53.00
22956;DHT22;40888;48.148;11.526;2023-04-03T14:59:58;8.90;54.30
22956;DHT22;40888;48.148;11.526;2023-04-03T15:02:28;8.80;53.80
22956;DHT22;40888;48.148;11.526;2023-04-03T15:04:58;8.40;52.70
22956;DHT22;40888;48.148;11.526;2023-04-03T15:07:26;7.90;53.50
22956;DHT22;40888;48.148;11.526;2023-04-03T15:09:52;7.40;53.80
22956;DHT22;40888;48.148;11.526;2023-04-03T15:12:18;7.30;55.10
22956;DHT22;40888;48.148;11.526;2023-04-03T15:14:44;7.40;55.20
22956;DHT22;40888;48.148;11.526;2023-04-03T15:17:19;7.40;55.30
22956;DHT22;40888;48.148;11.526;2023-04-03T15:19:46;7.60;54.70
22956;DHT22;40888;48.148;11.526;2023-04-03T15:22:14;7.20;54.20
22956;DHT22;40888;48.148;11.526;2023-04-03T15:24:41;7.40;53.80
22956;DHT22;40888;48.148;11.526;2023-04-03T15:27:07;7.30;53.80
22956;DHT22;40888;48.148;11.526;2023-04-03T15:29:33;7.20;53.30
22956;DHT22;40888;48.148;11.526;2023-04-03T15:31:58;7.30;52.60
22956;DHT22;40888;48.148;11.526;2023-04-03T15:34:24;7.10;53.30
22956;DHT22;40888;48.148;11.526;2023-04-03T15:36:50;7.20;52.60
22956;DHT22;40888;48.148;11.526;2023-04-03T15:39:19;6.70;53.20
22956;DHT22;40888;48.148;11.526;2023-04-03T15:41:45;7.00;52.20
22956;DHT22;40888;48.148;11.526;2023-04-03T15:44:11;7.00;51.30
22956;DHT22;40888;48.148;11.526;2023-04-03T15:46:39;6.70;51.90
22956;DHT22;40888;48.148;11.526;2023-04-03T15:49:05;6.80;52.70
22956;DHT22;40888;48.148;11.526;2023-04-03T15:51:31;6.70;52.40
22956;DHT22;40888;48.148;11.526;2023-04-03T15:53:57;6.70;52.90
22956;DHT22;40888;48.148;11.526;2023-04-03T15:56:22;6.80;54.30
22956;DHT22;40888;48.148;11.526;2023-04-03T15:58:48;6.70;52.70
22956;DHT22;40888;48.148;11.526;2023-04-03T16:01:14;6.60;52.40
22956;DHT22;40888;48.148;11.526;2023-04-03T16:03:42;6.50;52.60
22956;DHT22;40888;48.148;11.526;2023-04-03T16:06:16;6.90;51.40
22956;DHT22;40888;48.148;11.526;2023-04-03T16:08:44;7.00;50.10
22956;DHT22;40888;48.148;11.526;2023-04-03T16:11:10;7.10;49.70
22956;DHT22;40888;48.148;11.526;2023-04-03T16:13:36;7.00;51.10
22956;DHT22;40888;48.148;11.526;2023-04-03T16:16:02;6.80;52.10
22956;DHT22;40888;48.148;11.526;2023-04-03T16:18:29;6.80;52.40
22956;DHT22;40888;48.148;11.526;2023-04-03T16:20:55;6.80;52.60
22956;DHT22;40888;48.148;11.526;2023-04-03T16:23:21;6.50;53.20
22956;DHT22;40888;48.148;11.526;2023-04-03T16:25:48;6.60;53.20
22956;DHT22;40888;48.148;11.526;2023-04-03T16:28:15;6.60;53.60
22956;DHT22;40888;48.148;11.526;2023-04-03T16:30:46;6.70;52.60
22956;DHT22;40888;48.148;11.526;2023-04-03T16:33:13;6.50;52.80
22956;DHT22;40888;48.148;11.526;2023-04-03T16:35:39;6.40;53.00
22956;DHT22;40888;48.148;11.526;2023-04-03T16:38:07;6.40;52.60
22956;DHT22;40888;48.148;11.526;2023-04-03T16:40:33;6.30;52.30
22956;DHT22;40888;48.148;11.526;2023-04-03T16:43:00;6.30;53.20
22956;DHT22;40888;48.148;11.526;2023-04-03T16:45:26;6.20;52.90
22956;DHT22;40888;48.148;11.526;2023-04-03T16:47:52;6.20;53.10
22956;DHT22;40888;48.148;11.526;2023-04-03T16:50:18;6.10;53.10
22956;DHT22;40888;48.148;11.526;2023-04-03T16:52:46;6.00;52.60
22956;DHT22;40888;48.148;11.526;2023-04-03T16:55:12;5.70;53.00
22956;DHT22;40888;48.148;11.526;2023-04-03T16:57:38;5.80;53.20
22956;DHT22;40888;48.148;11.526;2023-04-03T17:00:04;5.90;52.70
22956;DHT22;40888;48.148;11.526;2023-04-03T17:02:31;5.80;52.60
22956;DHT22;40888;48.148;11.526;2023-04-03T17:04:56;5.80;52.80
22956;DHT22;40888;48.148;11.526;2023-04-03T17:07:24;5.80;52.90
22956;DHT22;40888;48.148;11.526;2023-04-03T17:09:51;5.70;53.90
22956;DHT22;40888;48.148;11.526;2023-04-03T17:12:19;5.60;54.50
22956;DHT22;40888;48.148;11.526;2023-04-03T17:14:45;5.50;55.20
22956;DHT22;40888;48.148;11.526;2023-04-03T17:17:19;5.50;56.00
22956;DHT22;40888;48.148;11.526;2023-04-03T17:19:45;5.50;56.00
22956;DHT22;40888;48.148;11.526;2023-04-03T17:22:11;5.50;55.90
22956;DHT22;40888;48.148;11.526;2023-04-03T17:24:37;5.50;55.90